sensor_id;sensor_type;location;lat;lon;timestamp;P1;durP1;ratioP1;P2;durP2;ratioP2
30173;SDS011;16985;50.814;8.530;2023-01-23T00:01:03;13.95;;;9.10;;
30173;SDS011;16985;50.814;8.530;2023-01-23T00:03:33;15.18;;;9.70;;
30173;SDS011;16985;50.814;8.530;2023-01-23T00:05:59;12.90;;;8.60;;
30173;SDS011;16985;50.814;8.530;2023-01-23T00:08:34;18.33;;;10.85;;
30173;SDS011;16985;50.814;8.530;2023-01-23T00:11:07;13.85;;;9.07;;
30173;SDS011;16985;50.814;8.530;2023-01-23T00:13:42;12.00;;;8.40;;
30173;SDS011;16985;50.814;8.530;2023-01-23T00:16:12;13.65;;;8.90;;
30173;SDS011;16985;50.814;8.530;2023-01-23T00:18:47;12.73;;;8.27;;
30173;SDS011;16985;50.814;8.530;2023-01-23T00:23:54;18.10;;;10.02;;
30173;SDS011;16985;50.814;8.530;2023-01-23T00:26:22;16.95;;;9.00;;
30173;SDS011;16985;50.814;8.530;2023-01-23T00:28:52;16.38;;;10.43;;
30173;SDS011;16985;50.814;8.530;2023-01-23T00:31:25;19.10;;;10.48;;
30173;SDS011;16985;50.814;8.530;2023-01-23T00:33:58;14.95;;;9.80;;
30173;SDS011;16985;50.814;8.530;2023-01-23T00:36:28;15.50;;;10.15;;
30173;SDS011;16985;50.814;8.530;2023-01-23T00:39:00;16.30;;;10.48;;
30173;SDS011;16985;50.814;8.530;2023-01-23T00:41:28;18.25;;;11.13;;
30173;SDS011;16985;50.814;8.530;2023-01-23T00:43:54;17.17;;;10.73;;
30173;SDS011;16985;50.814;8.530;2023-01-23T00:46:20;18.83;;;10.82;;
30173;SDS011;16985;50.814;8.530;2023-01-23T00:48:46;17.13;;;10.50;;
30173;SDS011;16985;50.814;8.530;2023-01-23T00:51:12;16.00;;;10.95;;
30173;SDS011;16985;50.814;8.530;2023-01-23T00:53:38;16.65;;;10.35;;
30173;SDS011;16985;50.814;8.530;2023-01-23T00:56:04;15.30;;;9.88;;
30173;SDS011;16985;50.814;8.530;2023-01-23T00:58:31;17.42;;;10.38;;
30173;SDS011;16985;50.814;8.530;2023-01-23T01:00:56;17.13;;;10.00;;
30173;SDS011;16985;50.814;8.530;2023-01-23T01:03:22;19.27;;;11.15;;
30173;SDS011;16985;50.814;8.530;2023-01-23T01:05:49;17.13;;;10.13;;
30173;SDS011;16985;50.814;8.530;2023-01-23T01:08:16;16.88;;;10.75;;
30173;SDS011;16985;50.814;8.530;2023-01-23T01:10:42;18.55;;;11.27;;
30173;SDS011;16985;50.814;8.530;2023-01-23T01:13:08;15.52;;;10.35;;
30173;SDS011;16985;50.814;8.530;2023-01-23T01:15:34;16.90;;;10.63;;
30173;SDS011;16985;50.814;8.530;2023-01-23T01:18:00;17.92;;;10.43;;
30173;SDS011;16985;50.814;8.530;2023-01-23T01:20:27;15.70;;;9.73;;
30173;SDS011;16985;50.814;8.530;2023-01-23T01:22:55;15.35;;;10.60;;
30173;SDS011;16985;50.814;8.530;2023-01-23T01:28:22;15.15;;;10.20;;
30173;SDS011;16985;50.814;8.530;2023-01-23T01:30:50;17.77;;;11.27;;
30173;SDS011;16985;50.814;8.530;2023-01-23T01:33:16;16.45;;;10.75;;
30173;SDS011;16985;50.814;8.530;2023-01-23T01:35:41;15.73;;;10.35;;
30173;SDS011;16985;50.814;8.530;2023-01-23T01:38:07;16.98;;;11.00;;
30173;SDS011;16985;50.814;8.530;2023-01-23T01:40:34;17.08;;;10.48;;
30173;SDS011;16985;50.814;8.530;2023-01-23T01:43:02;14.40;;;10.43;;
30173;SDS011;16985;50.814;8.530;2023-01-23T01:54:42;16.55;;;10.57;;
30173;SDS011;16985;50.814;8.530;2023-01-23T01:57:16;17.52;;;10.95;;
30173;SDS011;16985;50.814;8.530;2023-01-23T02:02:35;17.27;;;10.07;;
30173;SDS011;16985;50.814;8.530;2023-01-23T02:05:12;18.65;;;11.00;;
30173;SDS011;16985;50.814;8.530;2023-01-23T02:10:44;17.17;;;11.15;;
30173;SDS011;16985;50.814;8.530;2023-01-23T02:13:22;18.63;;;12.35;;
30173;SDS011;16985;50.814;8.530;2023-01-23T02:15:54;16.45;;;11.00;;
30173;SDS011;16985;50.814;8.530;2023-01-23T02:18:22;16.02;;;10.98;;
30173;SDS011;16985;50.814;8.530;2023-01-23T02:20:50;18.45;;;11.30;;
30173;SDS011;16985;50.814;8.530;2023-01-23T02:26:21;17.05;;;10.88;;
30173;SDS011;16985;50.814;8.530;2023-01-23T02:28:53;17.77;;;11.20;;
30173;SDS011;16985;50.814;8.530;2023-01-23T02:31:23;16.20;;;10.45;;
30173;SDS011;16985;50.814;8.530;2023-01-23T02:33:51;17.15;;;11.60;;
30173;SDS011;16985;50.814;8.530;2023-01-23T02:36:20;17.48;;;11.98;;
30173;SDS011;16985;50.814;8.530;2023-01-23T02:39:06;16.52;;;11.02;;
30173;SDS011;16985;50.814;8.530;2023-01-23T02:41:42;15.02;;;10.05;;
30173;SDS011;16985;50.814;8.530;2023-01-23T02:44:16;15.80;;;10.57;;
30173;SDS011;16985;50.814;8.530;2023-01-23T02:46:54;17.65;;;11.27;;
30173;SDS011;16985;50.814;8.530;2023-01-23T02:49:25;16.92;;;10.45;;
30173;SDS011;16985;50.814;8.530;2023-01-23T02:51:51;16.30;;;9.93;;
30173;SDS011;16985;50.814;8.530;2023-01-23T02:54:19;16.77;;;11.35;;
30173;SDS011;16985;50.814;8.530;2023-01-23T02:56:46;18.38;;;11.30;;
30173;SDS011;16985;50.814;8.530;2023-01-23T02:59:13;15.13;;;9.90;;
30173;SDS011;16985;50.814;8.530;2023-01-23T03:01:57;15.15;;;10.43;;
30173;SDS011;16985;50.814;8.530;2023-01-23T03:04:24;16.45;;;10.95;;
30173;SDS011;16985;50.814;8.530;2023-01-23T03:06:50;15.52;;;10.18;;
30173;SDS011;16985;50.814;8.530;2023-01-23T03:09:17;15.25;;;10.23;;
30173;SDS011;16985;50.814;8.530;2023-01-23T03:11:44;16.93;;;10.37;;
30173;SDS011;16985;50.814;8.530;2023-01-23T03:14:12;15.30;;;10.15;;
30173;SDS011;16985;50.814;8.530;2023-01-23T03:16:41;15.68;;;10.95;;
30173;SDS011;16985;50.814;8.530;2023-01-23T03:19:10;14.95;;;10.15;;
30173;SDS011;16985;50.814;8.530;2023-01-23T03:21:37;14.30;;;10.00;;
30173;SDS011;16985;50.814;8.530;2023-01-23T03:24:05;16.60;;;10.82;;
30173;SDS011;16985;50.814;8.530;2023-01-23T03:26:33;15.50;;;10.35;;
30173;SDS011;16985;50.814;8.530;2023-01-23T03:28:59;16.50;;;10.43;;
30173;SDS011;16985;50.814;8.530;2023-01-23T03:31:48;17.33;;;10.98;;
30173;SDS011;16985;50.814;8.530;2023-01-23T03:34:14;18.20;;;11.18;;
30173;SDS011;16985;50.814;8.530;2023-01-23T03:36:42;16.80;;;9.87;;
30173;SDS011;16985;50.814;8.530;2023-01-23T03:39:08;17.15;;;10.55;;
30173;SDS011;16985;50.814;8.530;2023-01-23T03:41:53;17.73;;;11.32;;
30173;SDS011;16985;50.814;8.530;2023-01-23T03:44:20;17.33;;;11.40;;
30173;SDS011;16985;50.814;8.530;2023-01-23T03:46:48;17.00;;;10.95;;
30173;SDS011;16985;50.814;8.530;2023-01-23T03:49:16;13.68;;;9.43;;
30173;SDS011;16985;50.814;8.530;2023-01-23T03:51:43;15.32;;;9.77;;
30173;SDS011;16985;50.814;8.530;2023-01-23T03:54:09;15.80;;;10.98;;
30173;SDS011;16985;50.814;8.530;2023-01-23T03:56:36;15.32;;;10.25;;
30173;SDS011;16985;50.814;8.530;2023-01-23T03:59:04;14.48;;;10.50;;
30173;SDS011;16985;50.814;8.530;2023-01-23T04:01:30;15.52;;;10.60;;
30173;SDS011;16985;50.814;8.530;2023-01-23T04:03:57;16.38;;;10.63;;
30173;SDS011;16985;50.814;8.530;2023-01-23T04:06:23;17.10;;;10.65;;
30173;SDS011;16985;50.814;8.530;2023-01-23T04:08:49;13.20;;;9.35;;
30173;SDS011;16985;50.814;8.530;2023-01-23T04:11:15;14.63;;;9.68;;
30173;SDS011;16985;50.814;8.530;2023-01-23T04:13:41;16.60;;;11.45;;
30173;SDS011;16985;50.814;8.530;2023-01-23T04:16:06;17.23;;;11.98;;
30173;SDS011;16985;50.814;8.530;2023-01-23T04:18:34;13.23;;;9.48;;
30173;SDS011;16985;50.814;8.530;2023-01-23T04:20:59;16.60;;;10.98;;
30173;SDS011;16985;50.814;8.530;2023-01-23T04:23:25;16.52;;;10.88;;
30173;SDS011;16985;50.814;8.530;2023-01-23T04:25:52;15.02;;;11.13;;
30173;SDS011;16985;50.814;8.530;2023-01-23T04:28:18;19.30;;;12.52;;
30173;SDS011;16985;50.814;8.530;2023-01-23T04:30:48;17.13;;;11.68;;
30173;SDS011;16985;50.814;8.530;2023-01-23T04:33:24;18.42;;;12.05;;
30173;SDS011;16985;50.814;8.530;2023-01-23T04:35:51;18.70;;;11.95;;
30173;SDS011;16985;50.814;8.530;2023-01-23T04:38:20;19.23;;;12.23;;
30173;SDS011;16985;50.814;8.530;2023-01-23T04:40:49;18.65;;;11.50;;
30173;SDS011;16985;50.814;8.530;2023-01-23T04:43:16;18.67;;;13.05;;
30173;SDS011;16985;50.814;8.530;2023-01-23T04:45:51;15.95;;;10.90;;
30173;SDS011;16985;50.814;8.530;2023-01-23T04:48:45;18.15;;;11.80;;
30173;SDS011;16985;50.814;8.530;2023-01-23T04:51:11;20.45;;;12.57;;
30173;SDS011;16985;50.814;8.530;2023-01-23T04:53:37;20.10;;;12.43;;
30173;SDS011;16985;50.814;8.530;2023-01-23T04:56:02;18.98;;;12.45;;
30173;SDS011;16985;50.814;8.530;2023-01-23T04:58:29;18.98;;;12.25;;
30173;SDS011;16985;50.814;8.530;2023-01-23T05:03:32;17.02;;;11.73;;
30173;SDS011;16985;50.814;8.530;2023-01-23T05:05:59;20.05;;;13.30;;
30173;SDS011;16985;50.814;8.530;2023-01-23T05:08:25;17.48;;;12.13;;
30173;SDS011;16985;50.814;8.530;2023-01-23T05:11:05;19.42;;;12.07;;
30173;SDS011;16985;50.814;8.530;2023-01-23T05:13:31;20.08;;;12.30;;
30173;SDS011;16985;50.814;8.530;2023-01-23T05:15:57;18.35;;;12.30;;
30173;SDS011;16985;50.814;8.530;2023-01-23T05:18:23;20.00;;;12.07;;
30173;SDS011;16985;50.814;8.530;2023-01-23T05:20:49;21.02;;;12.65;;
30173;SDS011;16985;50.814;8.530;2023-01-23T05:23:15;17.92;;;12.10;;
30173;SDS011;16985;50.814;8.530;2023-01-23T05:25:47;18.48;;;11.75;;
30173;SDS011;16985;50.814;8.530;2023-01-23T05:28:12;18.40;;;12.30;;
30173;SDS011;16985;50.814;8.530;2023-01-23T05:30:44;16.77;;;11.82;;
30173;SDS011;16985;50.814;8.530;2023-01-23T05:33:18;20.45;;;13.10;;
30173;SDS011;16985;50.814;8.530;2023-01-23T05:35:44;17.92;;;10.85;;
30173;SDS011;16985;50.814;8.530;2023-01-23T05:38:11;17.13;;;11.68;;
30173;SDS011;16985;50.814;8.530;2023-01-23T05:40:37;17.48;;;11.80;;
30173;SDS011;16985;50.814;8.530;2023-01-23T05:43:13;16.55;;;10.63;;
30173;SDS011;16985;50.814;8.530;2023-01-23T05:46:03;17.00;;;11.20;;
30173;SDS011;16985;50.814;8.530;2023-01-23T05:48:38;17.58;;;12.10;;
30173;SDS011;16985;50.814;8.530;2023-01-23T05:51:08;18.02;;;10.85;;
30173;SDS011;16985;50.814;8.530;2023-01-23T05:53:34;15.52;;;10.68;;
30173;SDS011;16985;50.814;8.530;2023-01-23T05:56:03;17.25;;;11.43;;
30173;SDS011;16985;50.814;8.530;2023-01-23T05:58:40;15.43;;;9.82;;
30173;SDS011;16985;50.814;8.530;2023-01-23T06:01:20;15.45;;;10.75;;
30173;SDS011;16985;50.814;8.530;2023-01-23T06:04:04;13.98;;;9.52;;
30173;SDS011;16985;50.814;8.530;2023-01-23T06:06:42;15.20;;;10.40;;
30173;SDS011;16985;50.814;8.530;2023-01-23T06:09:09;15.48;;;10.48;;
30173;SDS011;16985;50.814;8.530;2023-01-23T06:11:35;14.80;;;9.52;;
30173;SDS011;16985;50.814;8.530;2023-01-23T06:14:03;12.80;;;8.55;;
30173;SDS011;16985;50.814;8.530;2023-01-23T06:16:28;12.15;;;8.85;;
30173;SDS011;16985;50.814;8.530;2023-01-23T06:18:55;12.85;;;9.02;;
30173;SDS011;16985;50.814;8.530;2023-01-23T06:21:21;13.88;;;9.38;;
30173;SDS011;16985;50.814;8.530;2023-01-23T06:23:47;13.07;;;8.70;;
30173;SDS011;16985;50.814;8.530;2023-01-23T06:26:13;15.82;;;9.45;;
30173;SDS011;16985;50.814;8.530;2023-01-23T06:28:39;11.60;;;7.63;;
30173;SDS011;16985;50.814;8.530;2023-01-23T06:31:06;15.73;;;9.65;;
30173;SDS011;16985;50.814;8.530;2023-01-23T06:33:51;14.60;;;8.73;;
30173;SDS011;16985;50.814;8.530;2023-01-23T06:36:21;14.02;;;8.65;;
30173;SDS011;16985;50.814;8.530;2023-01-23T06:38:47;13.55;;;8.80;;
30173;SDS011;16985;50.814;8.530;2023-01-23T06:41:14;13.13;;;8.82;;
30173;SDS011;16985;50.814;8.530;2023-01-23T06:43:47;12.38;;;7.88;;
30173;SDS011;16985;50.814;8.530;2023-01-23T06:46:19;11.82;;;8.52;;
30173;SDS011;16985;50.814;8.530;2023-01-23T06:48:45;11.98;;;8.13;;
30173;SDS011;16985;50.814;8.530;2023-01-23T06:51:10;11.50;;;8.48;;
30173;SDS011;16985;50.814;8.530;2023-01-23T06:53:39;13.32;;;8.25;;
30173;SDS011;16985;50.814;8.530;2023-01-23T06:56:06;11.13;;;7.35;;
30173;SDS011;16985;50.814;8.530;2023-01-23T06:58:35;11.55;;;8.10;;
30173;SDS011;16985;50.814;8.530;2023-01-23T07:01:13;9.65;;;7.32;;
30173;SDS011;16985;50.814;8.530;2023-01-23T07:04:07;12.20;;;7.63;;
30173;SDS011;16985;50.814;8.530;2023-01-23T07:06:33;11.38;;;7.13;;
30173;SDS011;16985;50.814;8.530;2023-01-23T07:08:59;9.60;;;6.80;;
30173;SDS011;16985;50.814;8.530;2023-01-23T07:11:26;9.52;;;7.22;;
30173;SDS011;16985;50.814;8.530;2023-01-23T07:13:55;8.60;;;6.85;;
30173;SDS011;16985;50.814;8.530;2023-01-23T07:16:21;10.80;;;7.03;;
30173;SDS011;16985;50.814;8.530;2023-01-23T07:18:47;8.98;;;7.13;;
30173;SDS011;16985;50.814;8.530;2023-01-23T07:21:12;9.98;;;6.63;;
30173;SDS011;16985;50.814;8.530;2023-01-23T07:23:38;10.57;;;7.82;;
30173;SDS011;16985;50.814;8.530;2023-01-23T07:26:04;9.73;;;6.97;;
30173;SDS011;16985;50.814;8.530;2023-01-23T07:28:34;12.75;;;6.85;;
30173;SDS011;16985;50.814;8.530;2023-01-23T07:31:01;11.75;;;7.10;;
30173;SDS011;16985;50.814;8.530;2023-01-23T07:33:27;10.65;;;7.22;;
30173;SDS011;16985;50.814;8.530;2023-01-23T07:35:53;8.98;;;6.55;;
30173;SDS011;16985;50.814;8.530;2023-01-23T07:38:19;9.23;;;7.03;;
30173;SDS011;16985;50.814;8.530;2023-01-23T07:40:47;7.70;;;6.28;;
30173;SDS011;16985;50.814;8.530;2023-01-23T07:43:14;11.07;;;7.47;;
30173;SDS011;16985;50.814;8.530;2023-01-23T07:45:40;10.77;;;7.82;;
30173;SDS011;16985;50.814;8.530;2023-01-23T07:48:07;9.45;;;6.63;;
30173;SDS011;16985;50.814;8.530;2023-01-23T07:50:33;9.60;;;7.25;;
30173;SDS011;16985;50.814;8.530;2023-01-23T07:53:00;9.38;;;6.50;;
30173;SDS011;16985;50.814;8.530;2023-01-23T07:55:27;9.80;;;7.37;;
30173;SDS011;16985;50.814;8.530;2023-01-23T07:57:54;10.32;;;7.00;;
30173;SDS011;16985;50.814;8.530;2023-01-23T08:00:20;10.20;;;7.28;;
30173;SDS011;16985;50.814;8.530;2023-01-23T08:02:46;9.73;;;6.93;;
30173;SDS011;16985;50.814;8.530;2023-01-23T08:05:12;9.73;;;6.78;;
30173;SDS011;16985;50.814;8.530;2023-01-23T08:07:38;10.05;;;7.03;;
30173;SDS011;16985;50.814;8.530;2023-01-23T08:10:04;11.30;;;7.18;;
30173;SDS011;16985;50.814;8.530;2023-01-23T08:12:31;12.80;;;7.75;;
30173;SDS011;16985;50.814;8.530;2023-01-23T08:14:57;9.93;;;7.05;;
30173;SDS011;16985;50.814;8.530;2023-01-23T08:17:22;10.52;;;6.93;;
30173;SDS011;16985;50.814;8.530;2023-01-23T08:19:48;11.73;;;7.30;;
30173;SDS011;16985;50.814;8.530;2023-01-23T08:22:14;11.48;;;8.00;;
30173;SDS011;16985;50.814;8.530;2023-01-23T08:24:40;9.70;;;7.15;;
30173;SDS011;16985;50.814;8.530;2023-01-23T08:27:06;12.75;;;8.52;;
30173;SDS011;16985;50.814;8.530;2023-01-23T08:29:32;12.48;;;8.10;;
30173;SDS011;16985;50.814;8.530;2023-01-23T08:31:58;12.23;;;8.52;;
30173;SDS011;16985;50.814;8.530;2023-01-23T08:34:24;12.15;;;7.90;;
30173;SDS011;16985;50.814;8.530;2023-01-23T08:36:50;10.85;;;7.75;;
30173;SDS011;16985;50.814;8.530;2023-01-23T08:39:16;10.52;;;7.93;;
30173;SDS011;16985;50.814;8.530;2023-01-23T08:41:43;10.23;;;8.07;;
30173;SDS011;16985;50.814;8.530;2023-01-23T08:44:10;10.55;;;7.72;;
30173;SDS011;16985;50.814;8.530;2023-01-23T08:46:36;13.38;;;8.30;;
30173;SDS011;16985;50.814;8.530;2023-01-23T08:49:02;13.55;;;8.60;;
30173;SDS011;16985;50.814;8.530;2023-01-23T08:51:29;15.70;;;8.60;;
30173;SDS011;16985;50.814;8.530;2023-01-23T08:53:55;13.73;;;9.45;;
30173;SDS011;16985;50.814;8.530;2023-01-23T08:56:21;14.45;;;9.63;;
30173;SDS011;16985;50.814;8.530;2023-01-23T08:58:48;14.43;;;9.25;;
30173;SDS011;16985;50.814;8.530;2023-01-23T09:01:22;13.82;;;8.90;;
30173;SDS011;16985;50.814;8.530;2023-01-23T09:03:50;14.77;;;9.18;;
30173;SDS011;16985;50.814;8.530;2023-01-23T09:06:17;13.88;;;9.75;;
30173;SDS011;16985;50.814;8.530;2023-01-23T09:08:46;14.25;;;9.45;;
30173;SDS011;16985;50.814;8.530;2023-01-23T09:11:12;13.32;;;9.38;;
30173;SDS011;16985;50.814;8.530;2023-01-23T09:13:39;14.55;;;9.13;;
30173;SDS011;16985;50.814;8.530;2023-01-23T09:16:05;13.75;;;9.48;;
30173;SDS011;16985;50.814;8.530;2023-01-23T09:18:35;13.55;;;8.75;;
30173;SDS011;16985;50.814;8.530;2023-01-23T09:21:05;14.50;;;9.70;;
30173;SDS011;16985;50.814;8.530;2023-01-23T09:23:33;13.35;;;10.20;;
30173;SDS011;16985;50.814;8.530;2023-01-23T09:26:06;15.07;;;9.75;;
30173;SDS011;16985;50.814;8.530;2023-01-23T09:28:38;15.35;;;10.30;;
30173;SDS011;16985;50.814;8.530;2023-01-23T09:31:07;16.70;;;10.48;;
30173;SDS011;16985;50.814;8.530;2023-01-23T09:33:36;16.02;;;10.48;;
30173;SDS011;16985;50.814;8.530;2023-01-23T09:36:02;15.93;;;11.20;;
30173;SDS011;16985;50.814;8.530;2023-01-23T09:38:29;17.52;;;10.73;;
30173;SDS011;16985;50.814;8.530;2023-01-23T09:40:57;18.42;;;10.95;;
30173;SDS011;16985;50.814;8.530;2023-01-23T09:51:21;15.57;;;10.60;;
30173;SDS011;16985;50.814;8.530;2023-01-23T09:54:00;15.50;;;10.38;;
30173;SDS011;16985;50.814;8.530;2023-01-23T09:57:03;15.05;;;10.23;;
30173;SDS011;16985;50.814;8.530;2023-01-23T09:59:38;15.05;;;10.23;;
30173;SDS011;16985;50.814;8.530;2023-01-23T10:02:19;16.15;;;9.75;;
30173;SDS011;16985;50.814;8.530;2023-01-23T10:04:46;13.88;;;9.60;;
30173;SDS011;16985;50.814;8.530;2023-01-23T10:07:16;15.25;;;10.18;;
30173;SDS011;16985;50.814;8.530;2023-01-23T10:10:17;13.55;;;9.80;;
30173;SDS011;16985;50.814;8.530;2023-01-23T10:13:15;15.05;;;9.82;;
30173;SDS011;16985;50.814;8.530;2023-01-23T10:18:32;15.65;;;9.77;;
30173;SDS011;16985;50.814;8.530;2023-01-23T10:21:33;16.00;;;9.88;;
30173;SDS011;16985;50.814;8.530;2023-01-23T10:24:24;16.58;;;9.40;;
30173;SDS011;16985;50.814;8.530;2023-01-23T10:27:15;14.55;;;9.55;;
30173;SDS011;16985;50.814;8.530;2023-01-23T10:40:18;15.52;;;10.63;;
30173;SDS011;16985;50.814;8.530;2023-01-23T10:43:13;16.38;;;10.10;;
30173;SDS011;16985;50.814;8.530;2023-01-23T10:45:44;15.25;;;9.68;;
30173;SDS011;16985;50.814;8.530;2023-01-23T10:48:31;14.52;;;8.90;;
30173;SDS011;16985;50.814;8.530;2023-01-23T10:59:36;14.30;;;9.50;;
30173;SDS011;16985;50.814;8.530;2023-01-23T11:04:39;15.60;;;9.48;;
30173;SDS011;16985;50.814;8.530;2023-01-23T11:09:46;19.63;;;10.30;;
30173;SDS011;16985;50.814;8.530;2023-01-23T11:14:50;18.45;;;10.35;;
30173;SDS011;16985;50.814;8.530;2023-01-23T11:17:21;14.82;;;10.10;;
30173;SDS011;16985;50.814;8.530;2023-01-23T11:19:52;17.48;;;10.68;;
30173;SDS011;16985;50.814;8.530;2023-01-23T11:22:25;14.48;;;9.18;;
30173;SDS011;16985;50.814;8.530;2023-01-23T11:24:57;18.85;;;10.82;;
30173;SDS011;16985;50.814;8.530;2023-01-23T11:27:28;17.05;;;10.63;;
30173;SDS011;16985;50.814;8.530;2023-01-23T11:32:34;17.77;;;10.93;;
30173;SDS011;16985;50.814;8.530;2023-01-23T11:35:12;16.50;;;9.57;;
30173;SDS011;16985;50.814;8.530;2023-01-23T11:37:46;16.02;;;10.13;;
30173;SDS011;16985;50.814;8.530;2023-01-23T11:40:13;15.30;;;9.57;;
30173;SDS011;16985;50.814;8.530;2023-01-23T11:42:43;16.08;;;9.63;;
30173;SDS011;16985;50.814;8.530;2023-01-23T11:45:30;15.98;;;9.13;;
30173;SDS011;16985;50.814;8.530;2023-01-23T11:51:30;14.70;;;9.43;;
30173;SDS011;16985;50.814;8.530;2023-01-23T11:54:13;16.33;;;9.90;;
30173;SDS011;16985;50.814;8.530;2023-01-23T12:11:15;17.33;;;10.07;;
30173;SDS011;16985;50.814;8.530;2023-01-23T12:13:47;18.48;;;10.40;;
30173;SDS011;16985;50.814;8.530;2023-01-23T12:19:29;14.48;;;9.30;;
30173;SDS011;16985;50.814;8.530;2023-01-23T12:43:22;19.05;;;10.52;;
30173;SDS011;16985;50.814;8.530;2023-01-23T12:48:28;16.98;;;9.73;;
30173;SDS011;16985;50.814;8.530;2023-01-23T12:53:47;13.15;;;8.55;;
30173;SDS011;16985;50.814;8.530;2023-01-23T12:56:25;16.52;;;10.35;;
30173;SDS011;16985;50.814;8.530;2023-01-23T12:59:01;19.38;;;11.85;;
30173;SDS011;16985;50.814;8.530;2023-01-23T13:01:47;16.63;;;10.40;;
30173;SDS011;16985;50.814;8.530;2023-01-23T13:13:50;14.98;;;9.07;;
30173;SDS011;16985;50.814;8.530;2023-01-23T13:16:16;19.25;;;10.30;;
30173;SDS011;16985;50.814;8.530;2023-01-23T13:22:13;17.60;;;10.43;;
30173;SDS011;16985;50.814;8.530;2023-01-23T13:24:47;18.30;;;11.50;;
30173;SDS011;16985;50.814;8.530;2023-01-23T13:27:38;23.53;;;11.67;;
30173;SDS011;16985;50.814;8.530;2023-01-23T13:33:18;17.58;;;10.57;;
30173;SDS011;16985;50.814;8.530;2023-01-23T13:36:44;19.27;;;11.48;;
30173;SDS011;16985;50.814;8.530;2023-01-23T13:39:09;16.90;;;10.23;;
30173;SDS011;16985;50.814;8.530;2023-01-23T13:45:12;16.42;;;10.27;;
30173;SDS011;16985;50.814;8.530;2023-01-23T13:51:10;16.58;;;10.35;;
30173;SDS011;16985;50.814;8.530;2023-01-23T13:53:43;15.27;;;10.05;;
30173;SDS011;16985;50.814;8.530;2023-01-23T13:56:30;17.13;;;11.50;;
30173;SDS011;16985;50.814;8.530;2023-01-23T13:59:04;18.33;;;10.73;;
30173;SDS011;16985;50.814;8.530;2023-01-23T14:01:45;19.55;;;11.02;;
30173;SDS011;16985;50.814;8.530;2023-01-23T14:04:57;18.52;;;11.65;;
30173;SDS011;16985;50.814;8.530;2023-01-23T14:07:43;20.50;;;11.02;;
30173;SDS011;16985;50.814;8.530;2023-01-23T14:15:46;17.48;;;10.35;;
30173;SDS011;16985;50.814;8.530;2023-01-23T14:18:42;23.13;;;11.75;;
30173;SDS011;16985;50.814;8.530;2023-01-23T14:21:22;19.98;;;10.13;;
30173;SDS011;16985;50.814;8.530;2023-01-23T14:23:57;20.35;;;11.90;;
30173;SDS011;16985;50.814;8.530;2023-01-23T14:26:31;18.10;;;11.10;;
30173;SDS011;16985;50.814;8.530;2023-01-23T14:29:00;22.05;;;11.90;;
30173;SDS011;16985;50.814;8.530;2023-01-23T14:31:34;20.88;;;11.52;;
30173;SDS011;16985;50.814;8.530;2023-01-23T14:34:05;21.00;;;11.25;;
30173;SDS011;16985;50.814;8.530;2023-01-23T14:36:41;16.30;;;10.82;;
30173;SDS011;16985;50.814;8.530;2023-01-23T14:39:22;18.40;;;12.05;;
30173;SDS011;16985;50.814;8.530;2023-01-23T14:41:52;19.08;;;11.15;;
30173;SDS011;16985;50.814;8.530;2023-01-23T14:44:22;17.52;;;11.02;;
30173;SDS011;16985;50.814;8.530;2023-01-23T14:46:59;16.27;;;11.13;;
30173;SDS011;16985;50.814;8.530;2023-01-23T14:49:28;17.30;;;10.95;;
30173;SDS011;16985;50.814;8.530;2023-01-23T14:52:02;19.45;;;11.82;;
30173;SDS011;16985;50.814;8.530;2023-01-23T14:54:31;18.10;;;10.95;;
30173;SDS011;16985;50.814;8.530;2023-01-23T14:56:58;17.85;;;10.77;;
30173;SDS011;16985;50.814;8.530;2023-01-23T14:59:32;19.60;;;12.23;;
30173;SDS011;16985;50.814;8.530;2023-01-23T15:02:02;21.40;;;10.57;;
30173;SDS011;16985;50.814;8.530;2023-01-23T15:05:05;20.08;;;11.65;;
30173;SDS011;16985;50.814;8.530;2023-01-23T15:10:19;18.55;;;10.45;;
30173;SDS011;16985;50.814;8.530;2023-01-23T15:13:04;19.42;;;11.65;;
30173;SDS011;16985;50.814;8.530;2023-01-23T15:15:43;17.60;;;11.23;;
30173;SDS011;16985;50.814;8.530;2023-01-23T15:18:22;16.90;;;10.35;;
30173;SDS011;16985;50.814;8.530;2023-01-23T15:20:52;14.57;;;9.35;;
30173;SDS011;16985;50.814;8.530;2023-01-23T15:23:21;14.88;;;10.20;;
30173;SDS011;16985;50.814;8.530;2023-01-23T15:26:17;17.88;;;10.55;;
30173;SDS011;16985;50.814;8.530;2023-01-23T15:39:35;14.52;;;8.85;;
30173;SDS011;16985;50.814;8.530;2023-01-23T15:44:38;18.35;;;10.65;;
30173;SDS011;16985;50.814;8.530;2023-01-23T15:47:05;19.25;;;11.25;;
30173;SDS011;16985;50.814;8.530;2023-01-23T15:49:32;18.50;;;10.88;;
30173;SDS011;16985;50.814;8.530;2023-01-23T15:52:08;18.52;;;11.50;;
30173;SDS011;16985;50.814;8.530;2023-01-23T15:54:52;18.10;;;11.38;;
30173;SDS011;16985;50.814;8.530;2023-01-23T15:57:27;17.75;;;9.90;;
30173;SDS011;16985;50.814;8.530;2023-01-23T15:59:53;16.92;;;10.35;;
30173;SDS011;16985;50.814;8.530;2023-01-23T16:02:20;19.88;;;10.07;;
30173;SDS011;16985;50.814;8.530;2023-01-23T16:04:48;17.30;;;10.73;;
30173;SDS011;16985;50.814;8.530;2023-01-23T16:07:18;17.20;;;10.02;;
30173;SDS011;16985;50.814;8.530;2023-01-23T16:09:51;15.20;;;9.60;;
30173;SDS011;16985;50.814;8.530;2023-01-23T16:12:19;15.82;;;10.05;;
30173;SDS011;16985;50.814;8.530;2023-01-23T16:14:53;15.00;;;10.65;;
30173;SDS011;16985;50.814;8.530;2023-01-23T16:17:19;18.27;;;11.35;;
30173;SDS011;16985;50.814;8.530;2023-01-23T16:19:45;14.23;;;9.80;;
30173;SDS011;16985;50.814;8.530;2023-01-23T16:22:12;14.15;;;9.65;;
30173;SDS011;16985;50.814;8.530;2023-01-23T16:24:44;14.82;;;9.30;;
30173;SDS011;16985;50.814;8.530;2023-01-23T16:27:17;20.48;;;12.07;;
30173;SDS011;16985;50.814;8.530;2023-01-23T16:29:44;18.95;;;10.85;;
30173;SDS011;16985;50.814;8.530;2023-01-23T16:32:10;17.00;;;10.68;;
30173;SDS011;16985;50.814;8.530;2023-01-23T16:34:36;16.27;;;10.50;;
30173;SDS011;16985;50.814;8.530;2023-01-23T16:37:02;14.50;;;10.18;;
30173;SDS011;16985;50.814;8.530;2023-01-23T16:39:31;14.55;;;9.85;;
30173;SDS011;16985;50.814;8.530;2023-01-23T16:41:58;17.70;;;10.00;;
30173;SDS011;16985;50.814;8.530;2023-01-23T16:44:25;14.20;;;10.25;;
30173;SDS011;16985;50.814;8.530;2023-01-23T16:46:51;15.40;;;10.32;;
30173;SDS011;16985;50.814;8.530;2023-01-23T16:49:18;15.07;;;9.57;;
30173;SDS011;16985;50.814;8.530;2023-01-23T16:51:50;15.05;;;9.45;;
30173;SDS011;16985;50.814;8.530;2023-01-23T16:54:23;15.32;;;9.75;;
30173;SDS011;16985;50.814;8.530;2023-01-23T16:56:50;15.23;;;10.75;;
30173;SDS011;16985;50.814;8.530;2023-01-23T16:59:20;14.45;;;9.85;;
30173;SDS011;16985;50.814;8.530;2023-01-23T17:02:04;16.15;;;11.00;;
30173;SDS011;16985;50.814;8.530;2023-01-23T17:04:41;21.85;;;11.38;;
30173;SDS011;16985;50.814;8.530;2023-01-23T17:07:16;15.23;;;10.40;;
30173;SDS011;16985;50.814;8.530;2023-01-23T17:09:44;15.65;;;11.25;;
30173;SDS011;16985;50.814;8.530;2023-01-23T17:12:13;15.93;;;10.25;;
30173;SDS011;16985;50.814;8.530;2023-01-23T17:14:42;18.30;;;11.15;;
30173;SDS011;16985;50.814;8.530;2023-01-23T17:17:11;15.63;;;10.10;;
30173;SDS011;16985;50.814;8.530;2023-01-23T17:19:41;15.00;;;10.30;;
30173;SDS011;16985;50.814;8.530;2023-01-23T17:22:17;14.23;;;9.93;;
30173;SDS011;16985;50.814;8.530;2023-01-23T17:24:47;16.33;;;10.38;;
30173;SDS011;16985;50.814;8.530;2023-01-23T17:27:13;15.27;;;10.15;;